Aeroporto :
LOGIN :

Iscrizione | Disclaimer

   EN    FR    IT 

 










Sommario :    VFR   VFR Marginale   IFR   IFR Intensivo   IFR Molto Intensivo
Visibilità : 
Base nubi : 
>= 8 km
>= 3000ft
5 / 8 km
1000 / 3000 ft
1500m / 5 km
500 / 1000 ft
800 / 1500m
200 / 500 ft
< 800m
< 200 ft
Simboli :   Temporali  Nebbia  Neve Forte  Precipitazioni Forti  Vento > 20 kt
SIGMETs :   Varie  Temporali  Ghiacco  Turbolenza  Onda orograficha  Ceneri Vulcaniche






- Altitudine del aeroporto : 56 ft


LPOV - Ovar Air Base

ULTIMO METAR :
  • 170700Z VRB02KT 9999 SCT014 17/16 Q1017

METARs OBSOLETI :
  • 170600Z VRB01KT 9999 BKN014 18/17 Q1017

TAF AMD TAF LPOV
Valido dal 17 a 06 ore il 18 a 06 ore UTC


170600Z 1706/1806 VRB02KT 9999 BKN016
PROB40 1706/1708 0300 FG BKN002
BECMG 1708/1711 28007KT 9999 SCT015 BKN028
TEMPO 1710/1718 4000 -RADZ BR SCT010 BKN014
BECMG 1716/1718 35008KT SCT015



MetMap, La meteo Aeronautica in un colpo d'occhio ! - Copyright ORBIFLY Dicembre 2007 - Disclaimer

ORBIFLY MET'MAP TEAM :

Programmazione e sviluppo : Alexandra Zaïnal
Concezione : Baudouin d'Aumeries
Aiuto per la programmazione : Marc-Olivier Méhu
Supporto tecnico e logistico : Manuel Goepfert
Aiuto per la traduzione : Arnaldo La Scala

Contatto : metmap@orbifly.com




FONTI E CREDITI :

   NOAA